Portada
METAR-TAF:

METAR-TAF

Aeropuertos :

Aeropuerto de Kōbe

Kōbe, Japón

latitud: 34-37-58N, longitud: 135-13-26E, altitud: 7 m

Observación

El informe se hizo hace 54 minutos, a las 23:00 UTC
Viento 13 kt del noreste
Temperatura 15°C
Humedad 77%
Presión 1007 hPa
Visibilidad 10 km o más
Escasas nubes a una altura de 800 ft
Cielo nuboso a una altura de 10000 ft
Cielo nuboso a una altura de 13000 ft
lluvia ligera

METAR: RJBE 312300Z 05013KT 9999 -RA FEW008 BKN100 BKN130 15/11 Q1007

Hora: 08:54 (23:54 UTC)


TAF: falta

Observaciones y pronósticos meteorológicos de más de 4000 aeropuertos (mensajes METAR y TAF).

Los puntos amarillos y rojos representan las estaciones disponibles.

Ponga el ratón en el punto deseado para ver el nombre de la estación.

Haga clic para ver las observaciones y los pronósticos meteorológicos.

Para cambiar el mapa : haga clic en los botones verdes con una cruz de color negro para hacer un zoom, en el botón verde con un guión para alejar o en las flechas verdes para mapas adyacentes.


METAR-TAF: